Time,TemperatureF,DewpointF,PressureIn,WindDirection,WindDirectionDegrees,WindSpeedMPH,WindSpeedGustMPH,Humidity,HourlyPrecipIn,Conditions,Clouds,dailyrainin,SoftwareType,DateUTC
2013-02-28 00:01:00,66.0,59.3,30.16,NNW,330,25.0,43.0,79,0.00,,,0.00,Weather View 32 v70,2013-02-28 10:01:00,
2013-02-28 00:06:00,66.0,59.3,30.16,NNW,339,22.0,43.0,79,0.00,,,0.00,Weather View 32 v70,2013-02-28 10:06:00,
2013-02-28 00:11:00,66.1,59.0,30.15,North,350,20.0,43.0,78,0.00,,,0.00,Weather View 32 v70,2013-02-28 10:11:00,
2013-02-28 00:16:00,66.1,58.7,30.15,NNE,13,30.0,42.0,77,0.00,,,0.00,Weather View 32 v70,2013-02-28 10:16:00,
2013-02-28 00:21:00,66.0,58.6,30.14,North,9,30.0,42.0,77,0.00,,,0.00,Weather View 32 v70,2013-02-28 10:21:00,
2013-02-28 00:26:00,66.1,58.7,30.15,North,360,33.0,42.0,77,0.00,,,0.00,Weather View 32 v70,2013-02-28 10:26:00,
2013-02-28 00:31:00,66.0,58.2,30.14,NNE,16,26.0,42.0,76,0.00,,,0.00,Weather View 32 v70,2013-02-28 10:31:00,
2013-02-28 00:36:00,66.0,58.2,30.15,NNE,24,24.0,42.0,76,0.00,,,0.00,Weather View 32 v70,2013-02-28 10:36:00,
2013-02-28 00:41:00,66.0,57.8,30.15,NNW,334,34.0,43.0,75,0.00,,,0.00,Weather View 32 v70,2013-02-28 10:41:00,
2013-02-28 00:46:00,66.0,57.8,30.15,NNW,347,21.0,43.0,75,0.00,,,0.00,Weather View 32 v70,2013-02-28 10:46:00,
2013-02-28 00:51:00,66.0,57.1,30.15,NNW,348,14.0,43.0,73,0.00,,,0.00,Weather View 32 v70,2013-02-28 10:51:00,
2013-02-28 00:56:00,66.0,55.9,30.15,North,6,30.0,43.0,70,0.00,,,0.00,Weather View 32 v70,2013-02-28 10:56:00,
2013-02-28 01:01:00,66.2,55.3,30.16,NNW,334,19.0,43.0,68,0.00,,,0.00,Weather View 32 v70,2013-02-28 11:01:00,
2013-02-28 01:06:00,66.2,55.7,30.14,NNW,334,32.0,43.0,69,0.00,,,0.00,Weather View 32 v70,2013-02-28 11:06:00,
2013-02-28 01:11:00,66.1,55.6,30.12,NNE,18,17.0,43.0,69,0.00,,,0.00,Weather View 32 v70,2013-02-28 11:11:00,
2013-02-28 01:16:00,66.1,56.0,30.13,North,353,12.0,43.0,70,0.00,,,0.00,Weather View 32 v70,2013-02-28 11:16:00,
2013-02-28 01:21:00,65.9,55.8,30.15,NNW,342,19.0,43.0,70,0.00,,,0.00,Weather View 32 v70,2013-02-28 11:21:00,
2013-02-28 01:26:00,65.8,56.5,30.14,NNE,18,21.0,43.0,72,0.00,,,0.00,Weather View 32 v70,2013-02-28 11:26:00,
2013-02-28 01:31:00,65.9,57.0,30.14,NNW,335,17.0,43.0,73,0.00,,,0.00,Weather View 32 v70,2013-02-28 11:31:00,
2013-02-28 01:36:00,65.9,57.4,30.13,North,2,24.0,43.0,74,0.00,,,0.00,Weather View 32 v70,2013-02-28 11:36:00,
2013-02-28 01:41:00,65.8,57.3,30.13,North,8,16.0,40.0,74,0.00,,,0.00,Weather View 32 v70,2013-02-28 11:41:00,
2013-02-28 01:46:00,65.8,57.3,30.13,North,353,23.0,40.0,74,0.00,,,0.00,Weather View 32 v70,2013-02-28 11:46:00,
2013-02-28 01:51:00,65.8,57.3,30.13,NNW,339,26.0,40.0,74,0.00,,,0.00,Weather View 32 v70,2013-02-28 11:51:00,
2013-02-28 01:56:00,65.8,57.3,30.12,North,10,25.0,40.0,74,0.00,,,0.00,Weather View 32 v70,2013-02-28 11:56:00,
2013-02-28 02:01:00,65.8,57.3,30.12,NNW,346,19.0,40.0,74,0.00,,,0.00,Weather View 32 v70,2013-02-28 12:01:00,
2013-02-28 02:06:00,65.7,57.2,30.12,North,2,23.0,40.0,74,0.00,,,0.00,Weather View 32 v70,2013-02-28 12:06:00,
2013-02-28 02:11:00,65.6,57.4,30.13,NNE,15,19.0,40.0,75,0.00,,,0.00,Weather View 32 v70,2013-02-28 12:11:00,
2013-02-28 02:16:00,65.5,57.3,30.12,NNW,346,15.0,40.0,75,0.00,,,0.00,Weather View 32 v70,2013-02-28 12:16:00,
2013-02-28 02:22:00,65.8,56.5,30.12,NNE,20,13.0,40.0,72,0.00,,,0.00,Weather View 32 v70,2013-02-28 12:22:00,
2013-02-28 02:27:00,66.4,55.1,30.10,NNW,336,15.0,40.0,67,0.00,,,0.00,Weather View 32 v70,2013-02-28 12:27:00,
2013-02-28 02:32:00,66.6,55.3,30.11,NNE,24,14.0,38.0,67,0.00,,,0.00,Weather View 32 v70,2013-02-28 12:32:00,
2013-02-28 02:37:00,66.6,56.1,30.10,NNE,18,20.0,38.0,69,0.00,,,0.00,Weather View 32 v70,2013-02-28 12:37:00,
2013-02-28 02:42:00,66.3,57.4,30.09,North,2,38.0,42.0,73,0.00,,,0.00,Weather View 32 v70,2013-02-28 12:42:00,
2013-02-28 02:47:00,66.1,57.5,30.11,North,358,31.0,43.0,74,0.00,,,0.00,Weather View 32 v70,2013-02-28 12:47:00,
2013-02-28 02:52:00,66.0,57.8,30.10,NNE,14,19.0,43.0,75,0.00,,,0.00,Weather View 32 v70,2013-02-28 12:52:00,
2013-02-28 02:57:00,66.3,57.0,30.10,NNW,342,23.0,43.0,72,0.00,,,0.00,Weather View 32 v70,2013-02-28 12:57:00,
2013-02-28 03:02:00,66.6,56.9,30.10,NE,48,29.0,43.0,71,0.00,,,0.00,Weather View 32 v70,2013-02-28 13:02:00,
2013-02-28 03:07:00,66.6,56.5,30.09,NNW,347,28.0,43.0,70,0.00,,,0.00,Weather View 32 v70,2013-02-28 13:07:00,
2013-02-28 03:12:00,66.6,56.5,30.10,NNE,28,14.0,43.0,70,0.00,,,0.00,Weather View 32 v70,2013-02-28 13:12:00,
2013-02-28 03:17:00,66.4,57.1,30.10,NNE,22,18.0,43.0,72,0.00,,,0.00,Weather View 32 v70,2013-02-28 13:17:00,
2013-02-28 03:22:00,66.4,57.5,30.08,North,7,41.0,45.0,73,0.00,,,0.00,Weather View 32 v70,2013-02-28 13:22:00,
2013-02-28 03:27:00,66.4,57.5,30.08,North,359,29.0,45.0,73,0.00,,,0.00,Weather View 32 v70,2013-02-28 13:27:00,
2013-02-28 03:32:00,66.3,58.1,30.09,NNW,332,23.0,45.0,75,0.00,,,0.00,Weather View 32 v70,2013-02-28 13:32:00,
2013-02-28 03:37:00,66.3,58.1,30.06,NNW,329,31.0,45.0,75,0.00,,,0.00,Weather View 32 v70,2013-02-28 13:37:00,
2013-02-28 03:42:00,66.2,58.0,30.08,NNW,332,38.0,48.0,75,0.00,,,0.00,Weather View 32 v70,2013-02-28 13:42:00,
2013-02-28 03:47:00,66.1,57.2,30.11,North,357,25.0,48.0,73,0.00,,,0.00,Weather View 32 v70,2013-02-28 13:47:00,
2013-02-28 03:52:00,66.1,57.2,30.08,North,1,35.0,48.0,73,0.00,,,0.00,Weather View 32 v70,2013-02-28 13:52:00,
2013-02-28 03:57:00,66.1,57.2,30.09,NNW,333,40.0,48.0,73,0.00,,,0.00,Weather View 32 v70,2013-02-28 13:57:00,
2013-02-28 04:02:00,66.1,57.2,30.07,NNW,329,41.0,49.0,73,0.00,,,0.00,Weather View 32 v70,2013-02-28 14:02:00,
2013-02-28 04:07:00,66.1,57.2,30.09,North,10,31.0,49.0,73,0.00,,,0.00,Weather View 32 v70,2013-02-28 14:07:00,
2013-02-28 04:12:00,66.0,57.1,30.08,North,351,38.0,49.0,73,0.00,,,0.00,Weather View 32 v70,2013-02-28 14:12:00,
2013-02-28 04:17:00,66.1,56.4,30.10,NNW,341,29.0,49.0,71,0.00,,,0.00,Weather View 32 v70,2013-02-28 14:17:00,
2013-02-28 04:22:00,66.1,56.4,30.10,North,351,35.0,49.0,71,0.00,,,0.00,Weather View 32 v70,2013-02-28 14:22:00,
2013-02-28 04:27:00,66.2,56.5,30.11,NNW,341,25.0,49.0,71,0.00,,,0.00,Weather View 32 v70,2013-02-28 14:27:00,
2013-02-28 04:32:00,66.1,56.4,30.10,North,9,24.0,49.0,71,0.00,,,0.00,Weather View 32 v70,2013-02-28 14:32:00,
2013-02-28 04:37:00,66.1,56.4,30.10,North,354,28.0,49.0,71,0.00,,,0.00,Weather View 32 v70,2013-02-28 14:37:00,
2013-02-28 04:42:00,66.1,56.8,30.10,NNE,14,18.0,49.0,72,0.00,,,0.00,Weather View 32 v70,2013-02-28 14:42:00,
2013-02-28 04:47:00,66.1,56.4,30.09,North,352,32.0,49.0,71,0.00,,,0.00,Weather View 32 v70,2013-02-28 14:47:00,
2013-02-28 04:52:00,66.3,56.6,30.10,North,351,41.0,49.0,71,0.00,,,0.00,Weather View 32 v70,2013-02-28 14:52:00,
2013-02-28 04:57:00,66.3,57.0,30.08,NNW,339,32.0,49.0,72,0.00,,,0.00,Weather View 32 v70,2013-02-28 14:57:00,
2013-02-28 05:02:00,66.3,56.6,30.08,NNW,347,35.0,53.0,71,0.00,,,0.00,Weather View 32 v70,2013-02-28 15:02:00,
2013-02-28 05:07:00,66.2,57.3,30.10,North,8,35.0,53.0,73,0.00,,,0.00,Weather View 32 v70,2013-02-28 15:07:00,
2013-02-28 05:12:00,66.0,57.4,30.10,NW,321,39.0,53.0,74,0.00,,,0.00,Weather View 32 v70,2013-02-28 15:12:00,
2013-02-28 05:17:00,66.0,58.2,30.09,NW,311,24.0,53.0,76,0.00,,,0.00,Weather View 32 v70,2013-02-28 15:17:00,
2013-02-28 05:22:00,66.0,58.2,30.08,NNW,344,37.0,53.0,76,0.00,,,0.00,Weather View 32 v70,2013-02-28 15:22:00,
2013-02-28 05:27:00,66.1,57.9,30.06,North,355,30.0,53.0,75,0.00,,,0.00,Weather View 32 v70,2013-02-28 15:27:00,
2013-02-28 05:32:00,66.0,57.8,30.06,North,349,38.0,53.0,75,0.00,,,0.00,Weather View 32 v70,2013-02-28 15:32:00,
2013-02-28 05:37:00,66.0,58.2,30.10,NNE,28,21.0,53.0,76,0.00,,,0.00,Weather View 32 v70,2013-02-28 15:37:00,
2013-02-28 05:42:00,65.9,58.5,30.11,North,360,32.0,53.0,77,0.00,,,0.00,Weather View 32 v70,2013-02-28 15:42:00,
2013-02-28 05:47:00,65.9,58.5,30.09,North,1,30.0,53.0,77,0.00,,,0.00,Weather View 32 v70,2013-02-28 15:47:00,
2013-02-28 05:52:00,65.9,58.5,30.09,North,359,30.0,53.0,77,0.00,,,0.00,Weather View 32 v70,2013-02-28 15:52:00,
2013-02-28 05:57:00,66.0,58.2,30.10,North,356,36.0,53.0,76,0.00,,,0.00,Weather View 32 v70,2013-02-28 15:57:00,
2013-02-28 06:02:00,65.9,58.1,30.10,North,356,28.0,50.0,76,0.00,,,0.00,Weather View 32 v70,2013-02-28 16:02:00,
2013-02-28 06:07:00,65.9,58.5,30.11,NNW,330,31.0,50.0,77,0.00,,,0.00,Weather View 32 v70,2013-02-28 16:07:00,
2013-02-28 06:12:00,65.8,58.4,30.12,North,1,24.0,50.0,77,0.00,,,0.00,Weather View 32 v70,2013-02-28 16:12:00,
2013-02-28 06:17:00,65.8,58.4,30.13,North,356,31.0,50.0,77,0.00,,,0.00,Weather View 32 v70,2013-02-28 16:17:00,
2013-02-28 06:22:00,65.8,58.4,30.11,North,360,18.0,50.0,77,0.00,,,0.00,Weather View 32 v70,2013-02-28 16:22:00,
2013-02-28 06:27:00,65.8,58.4,30.12,NNE,15,27.0,50.0,77,0.00,,,0.00,Weather View 32 v70,2013-02-28 16:27:00,
2013-02-28 06:32:00,65.9,58.1,30.12,North,11,24.0,46.0,76,0.00,,,0.00,Weather View 32 v70,2013-02-28 16:32:00,
2013-02-28 06:37:00,66.1,57.9,30.11,North,349,36.0,46.0,75,0.00,,,0.00,Weather View 32 v70,2013-02-28 16:37:00,
2013-02-28 06:42:00,66.1,58.3,30.11,North,2,29.0,48.0,76,0.00,,,0.00,Weather View 32 v70,2013-02-28 16:42:00,
2013-02-28 06:47:00,66.0,58.2,30.10,North,357,37.0,48.0,76,0.00,,,0.00,Weather View 32 v70,2013-02-28 16:47:00,
2013-02-28 06:52:00,65.9,58.1,30.14,NNE,13,23.0,48.0,76,0.00,,,0.00,Weather View 32 v70,2013-02-28 16:52:00,
2013-02-28 06:57:00,66.1,58.3,30.12,NNW,342,32.0,48.0,76,0.00,,,0.00,Weather View 32 v70,2013-02-28 16:57:00,
2013-02-28 07:02:00,66.2,58.0,30.13,NNW,341,35.0,48.0,75,0.00,,,0.00,Weather View 32 v70,2013-02-28 17:02:00,
2013-02-28 07:07:00,66.2,58.0,30.13,North,353,39.0,50.0,75,0.00,,,0.00,Weather View 32 v70,2013-02-28 17:07:00,
2013-02-28 07:12:00,66.1,58.3,30.15,NW,326,25.0,50.0,76,0.00,,,0.00,Weather View 32 v70,2013-02-28 17:12:00,
2013-02-28 07:17:00,66.2,58.4,30.13,North,8,28.0,50.0,76,0.00,,,0.00,Weather View 32 v70,2013-02-28 17:17:00,
2013-02-28 07:22:00,66.4,58.6,30.12,North,351,29.0,50.0,76,0.00,,,0.00,Weather View 32 v70,2013-02-28 17:22:00,
2013-02-28 07:27:00,66.6,58.4,30.14,NNE,12,33.0,50.0,75,0.00,,,0.00,Weather View 32 v70,2013-02-28 17:27:00,
2013-02-28 07:33:00,66.6,58.8,30.14,NW,323,26.0,50.0,76,0.00,,,0.00,Weather View 32 v70,2013-02-28 17:33:00,
2013-02-28 07:38:00,66.6,58.8,30.14,NNW,341,31.0,50.0,76,0.00,,,0.00,Weather View 32 v70,2013-02-28 17:38:00,
2013-02-28 07:43:00,66.7,59.2,30.14,NNE,18,31.0,50.0,77,0.00,,,0.00,Weather View 32 v70,2013-02-28 17:43:00,
2013-02-28 07:48:00,66.8,59.3,30.15,North,1,32.0,50.0,77,0.00,,,0.00,Weather View 32 v70,2013-02-28 17:48:00,
2013-02-28 07:53:00,66.7,59.2,30.14,North,10,34.0,50.0,77,0.00,,,0.00,Weather View 32 v70,2013-02-28 17:53:00,
2013-02-28 07:58:00,66.7,59.6,30.14,North,352,26.0,50.0,78,0.00,,,0.00,Weather View 32 v70,2013-02-28 17:58:00,
2013-02-28 08:03:00,66.7,59.6,30.15,North,359,28.0,50.0,78,0.00,,,0.00,Weather View 32 v70,2013-02-28 18:03:00,
2013-02-28 08:08:00,66.8,59.7,30.16,North,3,34.0,49.0,78,0.00,,,0.00,Weather View 32 v70,2013-02-28 18:08:00,
2013-02-28 08:13:00,67.0,59.5,30.15,North,1,33.0,49.0,77,0.00,,,0.00,Weather View 32 v70,2013-02-28 18:13:00,
2013-02-28 08:18:00,67.0,59.2,30.12,North,351,27.0,49.0,76,0.00,,,0.00,Weather View 32 v70,2013-02-28 18:18:00,
2013-02-28 08:23:00,67.2,59.4,30.15,North,3,33.0,50.0,76,0.00,,,0.00,Weather View 32 v70,2013-02-28 18:23:00,
2013-02-28 08:28:00,67.4,59.2,30.16,North,353,41.0,50.0,75,0.00,,,0.00,Weather View 32 v70,2013-02-28 18:28:00,
2013-02-28 08:33:00,67.4,58.8,30.16,North,5,35.0,50.0,74,0.00,,,0.00,Weather View 32 v70,2013-02-28 18:33:00,
2013-02-28 08:38:00,67.8,58.8,30.16,NNE,18,45.0,50.0,73,0.00,,,0.00,Weather View 32 v70,2013-02-28 18:38:00,
2013-02-28 08:43:00,67.8,58.4,30.16,NNW,347,36.0,50.0,72,0.00,,,0.00,Weather View 32 v70,2013-02-28 18:43:00,
2013-02-28 08:48:00,68.1,58.7,30.16,North,8,32.0,50.0,72,0.00,,,0.00,Weather View 32 v70,2013-02-28 18:48:00,
2013-02-28 08:53:00,67.9,58.5,30.15,NNE,12,32.0,50.0,72,0.00,,,0.00,Weather View 32 v70,2013-02-28 18:53:00,
2013-02-28 08:58:00,67.9,58.5,30.15,North,8,33.0,50.0,72,0.00,,,0.00,Weather View 32 v70,2013-02-28 18:58:00,
2013-02-28 09:03:00,67.9,58.5,30.15,North,1,41.0,50.0,72,0.00,,,0.00,Weather View 32 v70,2013-02-28 19:03:00,
2013-02-28 09:10:00,67.9,58.1,30.16,North,8,36.0,50.0,71,0.00,,,0.00,Weather View 32 v70,2013-02-28 19:10:00,
2013-02-28 09:15:00,68.2,58.8,30.17,North,5,34.0,50.0,72,0.00,,,0.00,Weather View 32 v70,2013-02-28 19:15:00,
2013-02-28 09:20:00,68.5,59.1,30.17,NNE,12,30.0,48.0,72,0.00,,,0.00,Weather View 32 v70,2013-02-28 19:20:00,
2013-02-28 09:25:00,68.5,59.5,30.17,NNE,29,29.0,48.0,73,0.00,,,0.00,Weather View 32 v70,2013-02-28 19:25:00,
2013-02-28 09:30:00,68.3,58.9,30.15,NNE,24,35.0,48.0,72,0.00,,,0.00,Weather View 32 v70,2013-02-28 19:30:00,
2013-02-28 09:35:00,68.1,58.7,30.17,North,4,42.0,48.0,72,0.00,,,0.00,Weather View 32 v70,2013-02-28 19:35:00,
2013-02-28 09:40:00,68.1,59.1,30.18,NNE,16,36.0,45.0,73,0.00,,,0.00,Weather View 32 v70,2013-02-28 19:40:00,
2013-02-28 09:45:00,68.3,58.5,30.16,NNE,20,30.0,45.0,71,0.00,,,0.00,Weather View 32 v70,2013-02-28 19:45:00,
2013-02-28 09:50:00,68.2,58.4,30.15,North,357,35.0,47.0,71,0.00,,,0.00,Weather View 32 v70,2013-02-28 19:50:00,
2013-02-28 09:55:00,68.0,58.2,30.14,East,80,37.0,47.0,71,0.00,,,0.00,Weather View 32 v70,2013-02-28 19:55:00,
2013-02-28 10:00:00,68.6,58.8,30.17,North,3,40.0,47.0,71,0.00,,,0.00,Weather View 32 v70,2013-02-28 20:00:00,
2013-02-28 10:05:00,68.6,59.2,30.17,North,1,34.0,47.0,72,0.00,,,0.00,Weather View 32 v70,2013-02-28 20:05:00,
2013-02-28 10:10:00,68.3,58.9,30.14,NNE,30,32.0,47.0,72,0.00,,,0.00,Weather View 32 v70,2013-02-28 20:10:00,
2013-02-28 10:24:00,68.1,59.5,30.17,North,1,26.0,47.0,74,0.00,,,0.00,Weather View 32 v70,2013-02-28 20:24:00,
2013-02-28 10:29:00,68.8,58.6,30.18,North,6,31.0,47.0,70,0.00,,,0.00,Weather View 32 v70,2013-02-28 20:29:00,
2013-02-28 10:34:00,69.4,58.8,30.18,North,354,31.0,47.0,69,0.00,,,0.00,Weather View 32 v70,2013-02-28 20:34:00,
2013-02-28 10:41:00,69.2,59.4,30.17,NNE,16,23.0,47.0,71,0.00,,,0.00,Weather View 32 v70,2013-02-28 20:41:00,
2013-02-28 10:53:00,69.2,59.4,30.16,NNW,344,47.0,47.0,71,0.00,,,0.00,Weather View 32 v70,2013-02-28 20:53:00,
2013-02-28 10:55:00,69.3,59.1,30.14,NNE,31,29.0,47.0,70,0.00,,,0.00,Weather View 32 v70,2013-02-28 20:55:00,
2013-02-28 10:59:00,69.4,60.0,30.16,North,359,28.0,47.0,72,0.00,,,0.00,Weather View 32 v70,2013-02-28 20:59:00,
2013-02-28 11:00:00,69.4,59.6,30.15,North,1,30.0,47.0,71,0.00,,,0.00,Weather View 32 v70,2013-02-28 21:00:00,
2013-02-28 11:04:00,69.1,59.7,30.14,NNE,12,36.0,47.0,72,0.00,,,0.00,Weather View 32 v70,2013-02-28 21:04:00,
2013-02-28 11:05:00,68.8,59.8,30.15,NNE,19,38.0,47.0,73,0.00,,,0.00,Weather View 32 v70,2013-02-28 21:05:00,
2013-02-28 11:09:00,67.9,59.7,30.16,North,351,33.0,47.0,75,0.00,,,0.00,Weather View 32 v70,2013-02-28 21:09:00,
2013-02-28 11:14:00,68.3,60.0,30.16,North,353,30.0,47.0,75,0.00,,,0.00,Weather View 32 v70,2013-02-28 21:14:00,
2013-02-28 11:20:00,68.9,58.7,30.14,North,10,32.0,47.0,70,0.00,,,0.00,Weather View 32 v70,2013-02-28 21:20:00,
2013-02-28 11:24:00,68.8,59.0,30.16,NNE,31,28.0,47.0,71,0.00,,,0.00,Weather View 32 v70,2013-02-28 21:24:00,
2013-02-28 11:25:00,68.8,59.0,30.16,East,80,37.0,47.0,71,0.00,,,0.00,Weather View 32 v70,2013-02-28 21:25:00,
2013-02-28 11:30:00,68.6,58.0,30.16,North,9,24.0,47.0,69,0.00,,,0.00,Weather View 32 v70,2013-02-28 21:30:00,
2013-02-28 11:35:00,68.5,57.9,30.16,North,8,28.0,47.0,69,0.00,,,0.00,Weather View 32 v70,2013-02-28 21:35:00,
2013-02-28 11:42:00,68.9,59.1,30.17,NNE,18,24.0,47.0,71,0.00,,,0.00,Weather View 32 v70,2013-02-28 21:42:00,
2013-02-28 11:47:00,69.4,59.6,30.15,North,11,36.0,47.0,71,0.00,,,0.00,Weather View 32 v70,2013-02-28 21:47:00,
2013-02-28 11:50:00,69.2,60.5,30.14,NNE,12,36.0,47.0,74,0.00,,,0.00,Weather View 32 v70,2013-02-28 21:50:00,
2013-02-28 11:54:00,69.2,60.1,30.14,North,4,39.0,47.0,73,0.00,,,0.00,Weather View 32 v70,2013-02-28 21:54:00,
2013-02-28 11:55:00,69.0,60.0,30.14,NNE,29,37.0,47.0,73,0.00,,,0.00,Weather View 32 v70,2013-02-28 21:55:00,
2013-02-28 11:59:00,68.9,60.6,30.13,North,4,41.0,48.0,75,0.00,,,0.00,Weather View 32 v70,2013-02-28 21:59:00,
2013-02-28 12:00:00,68.8,60.5,30.13,NNE,24,42.0,48.0,75,0.00,,,0.00,Weather View 32 v70,2013-02-28 22:00:00,
2013-02-28 12:05:00,68.1,60.2,30.13,North,10,41.0,48.0,76,0.00,,,0.00,Weather View 32 v70,2013-02-28 22:05:00,
2013-02-28 12:06:00,68.2,60.3,30.13,North,2,42.0,48.0,76,0.00,,,0.00,Weather View 32 v70,2013-02-28 22:06:00,
2013-02-28 12:11:00,68.6,60.3,30.13,North,6,45.0,48.0,75,0.00,,,0.00,Weather View 32 v70,2013-02-28 22:11:00,
2013-02-28 12:16:00,68.7,60.8,30.12,North,8,33.0,48.0,76,0.00,,,0.00,Weather View 32 v70,2013-02-28 22:16:00,
2013-02-28 12:20:00,68.6,60.3,30.14,NW,325,25.0,48.0,75,0.00,,,0.00,Weather View 32 v70,2013-02-28 22:20:00,
2013-02-28 12:23:00,68.8,60.5,30.14,North,359,24.0,48.0,75,0.00,,,0.00,Weather View 32 v70,2013-02-28 22:23:00,
2013-02-28 12:28:00,69.2,59.8,30.14,NNE,25,20.0,48.0,72,0.00,,,0.00,Weather View 32 v70,2013-02-28 22:28:00,
2013-02-28 12:35:00,68.7,59.3,30.12,NNE,15,27.0,48.0,72,0.00,,,0.00,Weather View 32 v70,2013-02-28 22:35:00,
2013-02-28 12:40:00,69.4,59.2,30.11,NNE,12,28.0,48.0,70,0.00,,,0.00,Weather View 32 v70,2013-02-28 22:40:00,
2013-02-28 12:44:00,69.5,58.0,30.13,NNE,26,37.0,48.0,67,0.00,,,0.00,Weather View 32 v70,2013-02-28 22:44:00,
2013-02-28 12:50:00,70.1,57.8,30.12,NNE,23,31.0,48.0,65,0.00,,,0.00,Weather View 32 v70,2013-02-28 22:50:00,
2013-02-28 12:55:00,70.0,58.5,30.14,North,4,36.0,48.0,67,0.00,,,0.00,Weather View 32 v70,2013-02-28 22:55:00,
2013-02-28 13:00:00,69.9,58.8,30.11,NNE,17,35.0,47.0,68,0.00,,,0.00,Weather View 32 v70,2013-02-28 23:00:00,
2013-02-28 13:05:00,69.6,57.7,30.11,NE,41,19.0,47.0,66,0.00,,,0.00,Weather View 32 v70,2013-02-28 23:05:00,
2013-02-28 13:10:00,69.6,57.7,30.12,NNE,16,35.0,45.0,66,0.00,,,0.00,Weather View 32 v70,2013-02-28 23:10:00,
2013-02-28 13:15:00,69.6,57.3,30.12,NNE,13,29.0,43.0,65,0.00,,,0.00,Weather View 32 v70,2013-02-28 23:15:00,
2013-02-28 13:20:00,69.6,57.3,30.10,North,8,34.0,43.0,65,0.00,,,0.00,Weather View 32 v70,2013-02-28 23:20:00,
2013-02-28 13:25:00,70.1,56.4,30.12,North,356,39.0,43.0,62,0.00,,,0.00,Weather View 32 v70,2013-02-28 23:25:00,
2013-02-28 13:30:00,69.9,54.9,30.11,North,3,31.0,43.0,59,0.00,,,0.00,Weather View 32 v70,2013-02-28 23:30:00,
2013-02-28 13:35:00,69.8,54.8,30.11,North,351,29.0,47.0,59,0.00,,,0.00,Weather View 32 v70,2013-02-28 23:35:00,
2013-02-28 13:40:00,69.9,54.4,30.11,North,1,28.0,47.0,58,0.00,,,0.00,Weather View 32 v70,2013-02-28 23:40:00,
2013-02-28 13:45:00,70.1,53.6,30.09,North,359,28.0,47.0,56,0.00,,,0.00,Weather View 32 v70,2013-02-28 23:45:00,
2013-02-28 13:50:00,70.1,53.6,30.11,NNW,342,24.0,47.0,56,0.00,,,0.00,Weather View 32 v70,2013-02-28 23:50:00,
2013-02-28 13:55:00,70.1,54.1,30.11,NNE,12,33.0,47.0,57,0.00,,,0.00,Weather View 32 v70,2013-02-28 23:55:00,
2013-02-28 14:00:00,69.9,53.9,30.10,North,11,30.0,47.0,57,0.00,,,0.00,Weather View 32 v70,2013-03-01 00:00:00,
2013-02-28 14:05:00,69.9,53.4,30.11,North,359,32.0,47.0,56,0.00,,,0.00,Weather View 32 v70,2013-03-01 00:05:00,